createdAt,value
2022-11-14T00:00:07.044Z,81.21
2022-11-14T00:02:33.496Z,80.83
2022-11-14T00:04:59.946Z,81.03
2022-11-14T00:07:30.257Z,81.61
2022-11-14T00:09:56.750Z,81.68
2022-11-14T00:12:23.161Z,82.05
2022-11-14T00:14:49.626Z,81.91
2022-11-14T00:17:15.987Z,81.93
2022-11-14T00:19:42.333Z,82.33
2022-11-14T00:22:08.776Z,81.71
2022-11-14T00:24:35.147Z,82.07
2022-11-14T00:27:01.634Z,81.60
2022-11-14T00:29:27.992Z,81.98
2022-11-14T00:31:54.319Z,82.75
2022-11-14T00:34:20.794Z,82.14
2022-11-14T00:36:47.172Z,82.36
2022-11-14T00:39:15.086Z,82.89
2022-11-14T00:41:42.004Z,83.04
2022-11-14T00:44:08.837Z,82.98
2022-11-14T00:46:35.501Z,82.87
2022-11-14T00:49:01.847Z,82.56
2022-11-14T00:51:28.187Z,82.15
2022-11-14T00:53:54.642Z,82.84
2022-11-14T00:56:21.134Z,83.31
2022-11-14T00:58:47.585Z,82.91
2022-11-14T01:01:14.066Z,83.06
2022-11-14T01:03:40.498Z,83.51
2022-11-14T01:06:08.986Z,83.66
2022-11-14T01:08:35.469Z,83.73
2022-11-14T01:11:08.903Z,84.11
2022-11-14T01:13:35.269Z,83.82
2022-11-14T01:16:02.038Z,83.90
2022-11-14T01:18:28.621Z,83.65
2022-11-14T01:20:55.267Z,84.11
2022-11-14T01:23:21.655Z,84.14
2022-11-14T01:25:47.981Z,83.81
2022-11-14T01:28:18.335Z,84.11
2022-11-14T01:30:45.164Z,84.35
2022-11-14T01:33:11.530Z,83.90
2022-11-14T01:35:38.688Z,84.04
2022-11-14T01:38:06.089Z,84.37
2022-11-14T01:40:33.068Z,84.72
2022-11-14T01:43:24.988Z,84.23
2022-11-14T01:46:06.375Z,84.02
2022-11-14T01:48:49.694Z,84.60
2022-11-14T01:51:29.407Z,84.96
2022-11-14T01:54:02.508Z,84.17
2022-11-14T01:56:44.966Z,84.73
2022-11-14T01:59:21.254Z,84.47
2022-11-14T02:01:53.730Z,84.66
2022-11-14T02:04:25.162Z,84.25
2022-11-14T02:06:57.398Z,84.92
2022-11-14T02:09:24.673Z,84.71
2022-11-14T02:11:53.343Z,84.61
2022-11-14T02:14:19.722Z,85.16
2022-11-14T02:17:01.041Z,84.83
2022-11-14T02:19:50.435Z,85.30
2022-11-14T02:22:16.888Z,85.26
2022-11-14T02:24:43.614Z,84.76
2022-11-14T02:27:11.517Z,84.54
2022-11-14T02:29:38.228Z,84.72
2022-11-14T02:32:09.542Z,84.88
2022-11-14T02:34:37.365Z,84.74
2022-11-14T02:37:03.882Z,85.49
2022-11-14T02:39:30.405Z,84.92
2022-11-14T02:41:56.739Z,85.31
2022-11-14T02:44:23.112Z,85.11
2022-11-14T02:46:50.145Z,85.18
2022-11-14T02:49:16.607Z,85.13
2022-11-14T02:51:43.226Z,85.34
2022-11-14T02:54:09.701Z,85.05
2022-11-14T02:56:36.130Z,85.44
2022-11-14T02:59:02.700Z,85.31
2022-11-14T03:01:29.191Z,85.04
2022-11-14T03:03:55.670Z,85.09
2022-11-14T03:06:22.019Z,85.05
2022-11-14T03:08:48.656Z,84.90
2022-11-14T03:11:15.014Z,84.81
2022-11-14T03:13:41.594Z,84.68
2022-11-14T03:16:11.244Z,84.85
2022-11-14T03:18:38.046Z,84.59
2022-11-14T03:21:08.719Z,84.50
2022-11-14T03:23:35.101Z,84.84
2022-11-14T03:26:03.146Z,85.39
2022-11-14T03:28:30.147Z,85.27
2022-11-14T03:30:57.407Z,85.31
2022-11-14T03:33:24.008Z,85.49
2022-11-14T03:35:51.408Z,85.00
2022-11-14T03:38:18.885Z,84.77
2022-11-14T03:40:45.502Z,85.15
2022-11-14T03:43:11.857Z,85.15
2022-11-14T03:45:38.322Z,85.48
2022-11-14T03:48:07.716Z,84.99
2022-11-14T03:50:34.443Z,85.47
2022-11-14T03:53:01.322Z,85.47
2022-11-14T03:55:28.022Z,85.61
2022-11-14T03:57:54.456Z,85.86
2022-11-14T04:00:21.524Z,85.87
2022-11-14T04:02:48.185Z,86.27
2022-11-14T04:05:15.053Z,86.17
2022-11-14T04:07:41.372Z,86.49
2022-11-14T04:10:08.210Z,86.68
2022-11-14T04:12:34.788Z,86.40
2022-11-14T04:15:01.089Z,86.34
2022-11-14T04:17:27.414Z,86.93
2022-11-14T04:19:53.794Z,86.67
2022-11-14T04:22:20.291Z,86.03
2022-11-14T04:24:46.779Z,86.24
2022-11-14T04:27:13.137Z,85.97
2022-11-14T04:29:42.629Z,86.20
2022-11-14T04:32:08.983Z,86.00
2022-11-14T04:34:35.864Z,86.28
2022-11-14T04:37:02.201Z,86.22
2022-11-14T04:39:28.758Z,86.06
2022-11-14T04:41:55.213Z,86.32
2022-11-14T04:44:21.643Z,86.02
2022-11-14T04:46:48.000Z,86.50
2022-11-14T04:49:15.055Z,86.66
2022-11-14T04:51:41.414Z,87.06
2022-11-14T04:54:08.008Z,87.06
2022-11-14T04:56:34.682Z,87.34
2022-11-14T04:59:01.002Z,87.12
2022-11-14T05:01:27.395Z,86.28
2022-11-14T05:03:53.900Z,86.89
2022-11-14T05:06:20.280Z,87.50
2022-11-14T05:08:46.638Z,87.68
2022-11-14T05:11:18.758Z,87.59
2022-11-14T05:13:45.725Z,87.34
2022-11-14T05:16:12.726Z,86.88
2022-11-14T05:18:44.290Z,87.50
2022-11-14T05:21:15.126Z,88.04
2022-11-14T05:23:41.758Z,88.27
2022-11-14T05:26:10.993Z,87.77
2022-11-14T05:28:37.349Z,87.89
2022-11-14T05:31:13.563Z,87.62
2022-11-14T05:33:40.425Z,87.98
2022-11-14T05:36:12.735Z,88.53
2022-11-14T05:38:39.731Z,88.36
2022-11-14T05:41:13.516Z,87.72
2022-11-14T05:43:40.485Z,87.92
2022-11-14T05:46:09.916Z,88.36
2022-11-14T05:48:36.793Z,87.59
2022-11-14T05:51:04.811Z,88.43
2022-11-14T05:53:33.238Z,87.81
2022-11-14T05:56:09.498Z,88.15
2022-11-14T05:58:36.159Z,88.57
2022-11-14T06:01:20.611Z,87.87
2022-11-14T06:03:48.398Z,87.98
2022-11-14T06:06:17.830Z,87.89
2022-11-14T06:08:45.655Z,87.73
2022-11-14T06:11:15.115Z,87.79
2022-11-14T06:13:42.532Z,87.73
2022-11-14T06:16:19.421Z,88.13
2022-11-14T06:18:46.483Z,87.13
2022-11-14T06:21:14.553Z,87.26
2022-11-14T06:23:41.216Z,87.09
2022-11-14T06:26:14.779Z,87.52
2022-11-14T06:28:41.164Z,87.18
2022-11-14T06:31:07.782Z,87.40
2022-11-14T06:33:35.687Z,86.74
2022-11-14T06:36:04.317Z,87.74
2022-11-14T06:38:32.617Z,87.46
2022-11-14T06:41:04.092Z,87.47
2022-11-14T06:43:33.607Z,87.20
2022-11-14T06:46:00.043Z,87.50
2022-11-14T06:48:26.913Z,87.57
2022-11-14T06:50:55.035Z,87.65
2022-11-14T06:53:21.512Z,87.98
2022-11-14T06:55:58.154Z,87.04
2022-11-14T06:58:33.156Z,87.37
2022-11-14T07:01:16.199Z,87.02
2022-11-14T07:03:44.166Z,87.64
2022-11-14T07:06:13.225Z,88.00
2022-11-14T07:08:39.862Z,88.29
2022-11-14T07:11:22.999Z,87.67
2022-11-14T07:13:56.520Z,87.88
2022-11-14T07:16:29.541Z,88.56
2022-11-14T07:18:57.334Z,88.32
2022-11-14T07:21:24.730Z,88.13
2022-11-14T07:23:51.434Z,87.97
2022-11-14T07:26:18.030Z,88.50
2022-11-14T07:28:48.099Z,88.31
2022-11-14T07:31:19.976Z,88.20
2022-11-14T07:33:47.404Z,88.45
2022-11-14T07:36:15.303Z,88.75
2022-11-14T07:38:42.333Z,88.42
2022-11-14T07:41:14.909Z,88.07
2022-11-14T07:43:42.334Z,88.50
2022-11-14T07:46:14.980Z,88.33
2022-11-14T07:48:42.382Z,88.26
2022-11-14T07:51:17.771Z,87.59
2022-11-14T07:53:44.789Z,87.76
2022-11-14T07:56:11.500Z,87.81
2022-11-14T07:58:39.779Z,87.95
2022-11-14T08:01:07.921Z,87.65
2022-11-14T08:03:34.801Z,87.77
2022-11-14T08:06:02.278Z,87.66
2022-11-14T08:08:29.059Z,87.63
2022-11-14T08:10:59.141Z,87.57
2022-11-14T08:13:32.138Z,87.60
2022-11-14T08:16:00.175Z,87.94
2022-11-14T08:18:26.720Z,88.27
2022-11-14T08:20:54.244Z,87.60
2022-11-14T08:23:20.593Z,88.04
2022-11-14T08:25:47.047Z,88.65
2022-11-14T08:28:13.845Z,88.06
2022-11-14T08:30:40.593Z,88.40
2022-11-14T08:33:07.323Z,88.36
2022-11-14T08:35:34.137Z,88.20
2022-11-14T08:38:03.523Z,88.07
2022-11-14T08:40:30.373Z,87.66
2022-11-14T08:43:01.885Z,87.52
2022-11-14T08:45:30.047Z,87.09
2022-11-14T08:47:56.821Z,87.36
2022-11-14T08:50:23.492Z,87.04
2022-11-14T08:52:53.009Z,87.08
2022-11-14T08:55:20.335Z,86.36
2022-11-14T08:57:49.674Z,86.80
2022-11-14T09:00:17.348Z,86.21
2022-11-14T09:02:43.905Z,86.27
2022-11-14T09:05:11.038Z,86.09
2022-11-14T09:07:37.725Z,86.03
2022-11-14T09:10:04.837Z,85.49
2022-11-14T09:12:31.339Z,85.35
2022-11-14T09:14:57.820Z,85.10
2022-11-14T09:17:24.409Z,85.46
2022-11-14T09:19:51.237Z,84.70
2022-11-14T09:22:17.617Z,83.55
2022-11-14T09:24:47.320Z,83.50
2022-11-14T09:27:14.121Z,82.66
2022-11-14T09:29:40.633Z,83.43
2022-11-14T09:32:06.981Z,82.32
2022-11-14T09:34:33.561Z,81.75
2022-11-14T09:37:00.162Z,81.34
2022-11-14T09:39:26.697Z,81.49
2022-11-14T09:42:01.889Z,81.29
2022-11-14T09:44:43.298Z,81.01
2022-11-14T09:47:20.210Z,81.16
2022-11-14T09:49:51.391Z,80.30
2022-11-14T09:52:26.641Z,79.95
2022-11-14T09:54:59.533Z,81.07
2022-11-14T09:57:26.689Z,80.44
2022-11-14T09:59:53.201Z,80.20
2022-11-14T10:02:36.680Z,79.79
2022-11-14T10:05:18.599Z,79.88
2022-11-14T10:08:03.682Z,80.27
2022-11-14T10:10:45.199Z,79.33
2022-11-14T10:13:35.126Z,79.07
2022-11-14T10:16:10.823Z,78.78
2022-11-14T10:19:11.872Z,78.19
2022-11-14T10:22:06.139Z,78.13
2022-11-14T10:25:01.792Z,78.00
2022-11-14T10:27:34.879Z,77.44
2022-11-14T10:30:11.582Z,77.58
2022-11-14T10:32:46.173Z,77.73
2022-11-14T10:35:18.699Z,76.96
2022-11-14T10:38:07.637Z,75.53
2022-11-14T10:40:50.509Z,75.75
2022-11-14T10:43:35.139Z,75.35
2022-11-14T10:46:16.786Z,75.68
2022-11-14T10:48:47.059Z,75.64
2022-11-14T10:51:18.275Z,75.17
2022-11-14T10:54:03.302Z,75.96
2022-11-14T10:56:30.097Z,74.67
2022-11-14T10:58:56.445Z,74.60
2022-11-14T11:01:42.309Z,75.22
2022-11-14T11:04:24.791Z,73.95
2022-11-14T11:06:54.123Z,74.60
2022-11-14T11:09:45.539Z,73.88
2022-11-14T11:12:18.614Z,73.41
2022-11-14T11:14:46.875Z,73.03
2022-11-14T11:17:19.684Z,72.48
2022-11-14T11:19:48.354Z,72.62
2022-11-14T11:22:28.911Z,72.06
2022-11-14T11:24:55.715Z,72.29
2022-11-14T11:27:27.900Z,71.63
2022-11-14T11:30:03.103Z,71.39
2022-11-14T11:32:29.845Z,72.12
2022-11-14T11:35:00.035Z,71.81
2022-11-14T11:37:45.786Z,73.11
2022-11-14T11:40:17.245Z,72.96
2022-11-14T11:45:37.387Z,72.74
2022-11-14T11:48:14.838Z,72.87
2022-11-14T11:50:41.904Z,72.43
2022-11-14T11:53:34.644Z,72.38
2022-11-14T11:56:07.337Z,72.69
2022-11-14T11:58:58.622Z,72.86
2022-11-14T12:01:24.974Z,72.07
2022-11-14T12:03:53.731Z,71.63
2022-11-14T12:06:25.149Z,70.25
2022-11-14T12:09:14.642Z,70.71
2022-11-14T12:11:48.240Z,71.88
2022-11-14T12:14:39.041Z,72.36
2022-11-14T12:17:34.861Z,72.62
2022-11-14T12:20:20.315Z,73.68
2022-11-14T12:23:17.493Z,73.33
2022-11-14T12:26:09.740Z,74.07
2022-11-14T12:28:50.674Z,73.90
2022-11-14T12:31:18.221Z,74.62
2022-11-14T12:33:57.309Z,74.29
2022-11-14T12:36:30.727Z,73.95
2022-11-14T12:38:58.283Z,75.24
2022-11-14T12:41:28.231Z,74.90
2022-11-14T12:44:29.545Z,74.66
2022-11-14T12:47:05.327Z,75.13
2022-11-14T12:49:46.989Z,75.63
2022-11-14T12:52:42.324Z,76.06
2022-11-14T12:55:28.872Z,76.81
2022-11-14T12:58:01.310Z,77.45
2022-11-14T13:00:28.627Z,77.48
2022-11-14T13:03:32.740Z,77.20
2022-11-14T13:06:19.823Z,77.07
2022-11-14T13:08:58.997Z,78.31
2022-11-14T13:11:49.986Z,77.36
2022-11-14T13:14:37.167Z,78.32
2022-11-14T13:17:43.073Z,77.45
2022-11-14T13:20:39.999Z,77.58
2022-11-14T13:23:26.813Z,77.51
2022-11-14T13:26:11.487Z,78.26
2022-11-14T13:28:38.104Z,78.18
2022-11-14T13:31:16.453Z,78.44
2022-11-14T13:33:49.512Z,78.55
2022-11-14T13:36:41.537Z,78.18
2022-11-14T13:39:34.882Z,78.30
2022-11-14T13:42:25.849Z,78.49
2022-11-14T13:45:13.968Z,78.15
2022-11-14T13:47:58.141Z,78.43
2022-11-14T13:50:33.119Z,78.46
2022-11-14T13:52:59.767Z,78.67
2022-11-14T13:55:59.080Z,78.77
2022-11-14T13:59:02.901Z,79.05
2022-11-14T14:01:29.321Z,79.15
2022-11-14T14:04:20.879Z,79.38
2022-11-14T14:07:05.799Z,79.86
2022-11-14T14:10:11.115Z,79.48
2022-11-14T14:13:03.171Z,79.39
2022-11-14T14:15:46.050Z,79.85
2022-11-14T14:18:44.571Z,79.84
2022-11-14T14:21:31.135Z,79.63
2022-11-14T14:24:21.911Z,79.77
2022-11-14T14:27:20.786Z,79.34
2022-11-14T14:30:19.046Z,78.84
2022-11-14T14:33:03.961Z,78.88
2022-11-14T14:35:38.898Z,79.58
2022-11-14T14:38:12.056Z,79.19
2022-11-14T14:40:41.943Z,79.08
2022-11-14T14:43:22.732Z,79.69
2022-11-14T14:45:53.159Z,79.66
2022-11-14T14:48:24.225Z,80.13
2022-11-14T14:50:56.164Z,79.84
2022-11-14T14:53:28.640Z,80.27
2022-11-14T14:56:00.319Z,80.56
2022-11-14T14:58:30.384Z,80.56
2022-11-14T15:01:10.316Z,80.40
2022-11-14T15:03:39.897Z,80.75
2022-11-14T15:06:37.821Z,80.53
2022-11-14T15:09:17.391Z,80.42
2022-11-14T15:11:46.322Z,80.82
2022-11-14T15:14:16.267Z,80.77
2022-11-14T15:16:44.584Z,81.17
2022-11-14T15:19:16.900Z,80.86
2022-11-14T15:21:43.891Z,81.21
2022-11-14T15:24:18.660Z,81.08
2022-11-14T15:26:46.795Z,81.11
2022-11-14T15:29:20.510Z,80.78
2022-11-14T15:32:00.117Z,81.12
2022-11-14T15:34:29.467Z,81.09
2022-11-14T15:37:21.375Z,81.75
2022-11-14T15:39:48.548Z,81.33
2022-11-14T15:42:26.940Z,81.88
2022-11-14T15:44:54.196Z,81.67
2022-11-14T15:47:40.200Z,80.96
2022-11-14T15:50:25.520Z,81.11
2022-11-14T15:53:03.827Z,81.66
2022-11-14T15:55:30.482Z,81.58
2022-11-14T15:58:26.159Z,81.69
2022-11-14T16:00:50.403Z,81.81
2022-11-14T16:03:22.453Z,81.98
2022-11-14T16:05:49.120Z,81.78
2022-11-14T16:08:15.852Z,81.71
2022-11-14T16:10:42.661Z,81.98
2022-11-14T16:13:11.107Z,81.94
2022-11-14T16:15:38.256Z,82.74
2022-11-14T16:18:06.052Z,82.21
2022-11-14T16:20:38.127Z,82.58
2022-11-14T16:23:05.422Z,82.51
2022-11-14T16:25:32.025Z,82.47
2022-11-14T16:27:58.429Z,83.00
2022-11-14T16:30:26.210Z,82.78
2022-11-14T16:32:52.957Z,83.30
2022-11-14T16:35:25.116Z,83.29
2022-11-14T16:37:54.640Z,83.26
2022-11-14T16:40:27.665Z,83.21
2022-11-14T16:42:56.074Z,83.27
2022-11-14T16:45:22.854Z,83.28
2022-11-14T16:47:49.888Z,83.67
2022-11-14T16:50:17.856Z,83.41
2022-11-14T16:52:44.569Z,83.58
2022-11-14T16:55:11.928Z,83.79
2022-11-14T16:57:39.739Z,83.21
2022-11-14T17:00:12.168Z,83.87
2022-11-14T17:02:40.536Z,83.66
2022-11-14T17:05:07.223Z,83.84
2022-11-14T17:07:33.654Z,84.20
2022-11-14T17:10:00.401Z,83.91
2022-11-14T17:12:28.965Z,84.02
2022-11-14T17:14:55.294Z,84.14
2022-11-14T17:17:21.913Z,84.20
2022-11-14T17:19:48.731Z,84.00
2022-11-14T17:22:17.064Z,84.21
2022-11-14T17:24:44.244Z,84.14
2022-11-14T17:27:12.899Z,84.04
2022-11-14T17:29:39.854Z,84.53
2022-11-14T17:32:06.464Z,84.04
2022-11-14T17:34:32.839Z,84.24
2022-11-14T17:36:59.214Z,84.05
2022-11-14T17:39:26.124Z,84.07
2022-11-14T17:41:52.575Z,84.42
2022-11-14T17:44:18.976Z,84.18
2022-11-14T17:46:47.316Z,84.37
2022-11-14T17:49:13.889Z,84.50
2022-11-14T17:51:40.295Z,84.78
2022-11-14T17:54:06.834Z,84.60
2022-11-14T17:56:33.193Z,84.66
2022-11-14T17:58:59.563Z,84.75
2022-11-14T18:01:26.273Z,84.26
2022-11-14T18:03:52.892Z,85.03
2022-11-14T18:06:20.711Z,84.85
2022-11-14T18:08:48.252Z,85.16
2022-11-14T18:11:17.115Z,85.31
2022-11-14T18:13:43.959Z,85.15
2022-11-14T18:16:18.649Z,84.23
2022-11-14T18:18:45.897Z,85.19
2022-11-14T18:21:15.147Z,84.88
2022-11-14T18:23:42.103Z,85.54
2022-11-14T18:26:13.453Z,85.07
2022-11-14T18:28:40.807Z,85.20
2022-11-14T18:31:10.952Z,85.46
2022-11-14T18:33:39.101Z,84.86
2022-11-14T18:36:08.989Z,85.11
2022-11-14T18:38:35.840Z,85.63
2022-11-14T18:41:06.824Z,85.31
2022-11-14T18:43:34.141Z,85.34
2022-11-14T18:46:12.434Z,85.52
2022-11-14T18:48:40.496Z,85.53
2022-11-14T18:51:12.421Z,85.34
2022-11-14T18:53:38.955Z,85.51
2022-11-14T18:56:06.596Z,85.76
2022-11-14T18:58:33.557Z,85.64
2022-11-14T19:01:08.649Z,85.74
2022-11-14T19:03:35.286Z,85.69
2022-11-14T19:06:02.823Z,85.78
2022-11-14T19:08:32.395Z,85.76
2022-11-14T19:11:07.281Z,85.78
2022-11-14T19:13:34.458Z,85.85
2022-11-14T19:16:03.025Z,85.98
2022-11-14T19:18:30.834Z,86.23
2022-11-14T19:21:02.632Z,86.04
2022-11-14T19:23:29.864Z,85.83
2022-11-14T19:26:00.653Z,86.14
2022-11-14T19:28:29.490Z,86.09
2022-11-14T19:31:03.290Z,85.94
2022-11-14T19:33:32.007Z,85.73
2022-11-14T19:35:58.930Z,85.88
2022-11-14T19:38:25.349Z,86.13
2022-11-14T19:40:51.752Z,86.05
2022-11-14T19:43:18.818Z,85.97
2022-11-14T19:45:45.223Z,86.07
2022-11-14T19:48:11.860Z,86.41
2022-11-14T19:50:38.300Z,85.71
2022-11-14T19:53:05.030Z,86.16
2022-11-14T19:55:31.542Z,85.79
2022-11-14T19:58:01.047Z,86.09
2022-11-14T20:00:29.317Z,86.00
2022-11-14T20:02:55.812Z,86.16
2022-11-14T20:05:22.462Z,86.24
2022-11-14T20:07:48.841Z,85.79
2022-11-14T20:10:15.260Z,85.82
2022-11-14T20:12:41.984Z,86.01
2022-11-14T20:15:09.152Z,86.44
2022-11-14T20:17:35.755Z,86.74
2022-11-14T20:20:02.223Z,86.45
2022-11-14T20:22:28.705Z,86.44
2022-11-14T20:24:55.372Z,86.37
2022-11-14T20:27:21.799Z,86.70
2022-11-14T20:29:48.249Z,86.80
2022-11-14T20:32:15.834Z,86.91
2022-11-14T20:34:42.622Z,87.30
2022-11-14T20:37:11.469Z,86.88
2022-11-14T20:39:38.471Z,86.79
2022-11-14T20:42:05.099Z,87.32
2022-11-14T20:44:31.843Z,87.36
2022-11-14T20:46:58.398Z,87.32
2022-11-14T20:49:24.927Z,87.66
2022-11-14T20:51:51.426Z,87.58
2022-11-14T20:54:17.885Z,87.47
2022-11-14T20:56:44.299Z,86.96
2022-11-14T20:59:10.898Z,87.24
2022-11-14T21:01:48.084Z,87.06
2022-11-14T21:04:14.489Z,87.00
2022-11-14T21:06:40.831Z,87.42
2022-11-14T21:09:08.154Z,87.57
2022-11-14T21:11:34.565Z,87.33
2022-11-14T21:14:01.527Z,88.14
2022-11-14T21:16:33.426Z,88.04
2022-11-14T21:19:00.933Z,87.99
2022-11-14T21:21:29.124Z,88.06
2022-11-14T21:23:56.719Z,88.25
2022-11-14T21:26:25.919Z,88.31
2022-11-14T21:28:55.134Z,88.17
2022-11-14T21:31:31.530Z,88.28
2022-11-14T21:34:00.152Z,87.92
2022-11-14T21:36:45.536Z,88.40
2022-11-14T21:39:14.935Z,88.54
2022-11-14T21:41:43.135Z,88.54
2022-11-14T21:44:13.066Z,88.58
2022-11-14T21:46:40.032Z,88.76
2022-11-14T21:49:06.362Z,88.61
2022-11-14T21:51:32.712Z,88.62
2022-11-14T21:53:59.301Z,88.66
2022-11-14T21:56:28.181Z,88.57
2022-11-14T21:59:12.988Z,88.88
2022-11-14T22:01:59.845Z,88.63
2022-11-14T22:04:26.542Z,88.76
2022-11-14T22:06:53.173Z,88.78
2022-11-14T22:09:19.778Z,88.87
2022-11-14T22:11:46.738Z,88.85
2022-11-14T22:14:13.116Z,89.43
2022-11-14T22:16:39.887Z,89.32
2022-11-14T22:19:06.375Z,89.55
2022-11-14T22:21:32.727Z,88.98
2022-11-14T22:23:59.149Z,89.70
2022-11-14T22:26:25.593Z,89.75
2022-11-14T22:28:51.979Z,89.71
2022-11-14T22:31:21.860Z,89.68
2022-11-14T22:33:50.830Z,89.83
2022-11-14T22:36:18.361Z,90.23
2022-11-14T22:38:45.785Z,89.73
2022-11-14T22:41:17.612Z,90.21
2022-11-14T22:43:43.990Z,89.96
2022-11-14T22:46:13.262Z,90.00
2022-11-14T22:48:40.214Z,90.31
2022-11-14T22:51:08.231Z,90.42
2022-11-14T22:53:36.247Z,90.55
2022-11-14T22:56:04.456Z,91.14
2022-11-14T22:58:32.904Z,90.52
2022-11-14T23:00:59.874Z,90.49
2022-11-14T23:03:26.575Z,90.90
2022-11-14T23:05:53.062Z,91.08
2022-11-14T23:08:20.542Z,90.96
2022-11-14T23:10:47.714Z,91.48
2022-11-14T23:13:14.769Z,90.90
2022-11-14T23:15:46.924Z,90.78
2022-11-14T23:18:13.443Z,91.13
2022-11-14T23:20:39.830Z,91.54
2022-11-14T23:23:06.138Z,91.42
2022-11-14T23:25:35.664Z,91.46
2022-11-14T23:28:02.761Z,91.79
2022-11-14T23:30:29.116Z,91.42
2022-11-14T23:32:55.445Z,91.83
2022-11-14T23:35:21.831Z,91.80
2022-11-14T23:37:48.236Z,91.91
2022-11-14T23:40:14.596Z,91.68
2022-11-14T23:42:40.942Z,92.14
2022-11-14T23:45:07.734Z,91.83
2022-11-14T23:47:34.149Z,92.01
2022-11-14T23:50:00.519Z,92.05
2022-11-14T23:52:26.938Z,91.97
2022-11-14T23:54:53.333Z,92.83
2022-11-14T23:57:19.674Z,93.03
2022-11-14T23:59:46.035Z,93.16
